createdAt,value
2022-12-16T00:01:19.286Z,23.50
2022-12-16T00:03:56.191Z,22.37
2022-12-16T00:06:26.383Z,21.93
2022-12-16T00:08:55.020Z,21.50
2022-12-16T00:11:25.043Z,20.67
2022-12-16T00:13:52.717Z,19.83
2022-12-16T00:16:22.677Z,20.97
2022-12-16T00:18:51.927Z,18.67
2022-12-16T00:21:23.147Z,18.53
2022-12-16T00:23:50.573Z,20.90
2022-12-16T00:26:25.767Z,16.73
2022-12-16T00:28:55.307Z,20.63
2022-12-16T00:31:25.297Z,18.47
2022-12-16T00:33:56.504Z,20.53
2022-12-16T00:36:26.252Z,20.57
2022-12-16T00:38:53.749Z,21.40
2022-12-16T00:41:21.440Z,20.10
2022-12-16T00:43:50.003Z,19.13
2022-12-16T00:46:19.772Z,19.00
2022-12-16T00:48:47.403Z,19.17
2022-12-16T00:51:14.937Z,18.07
2022-12-16T00:53:48.259Z,18.53
2022-12-16T00:56:15.709Z,16.17
2022-12-16T00:58:47.632Z,18.07
2022-12-16T01:01:17.843Z,17.10
2022-12-16T01:03:47.844Z,17.43
2022-12-16T01:06:21.826Z,17.73
2022-12-16T01:08:49.278Z,18.63
2022-12-16T01:11:18.742Z,17.27
2022-12-16T01:13:47.242Z,18.83
2022-12-16T01:16:15.329Z,18.27
2022-12-16T01:18:43.382Z,17.37
2022-12-16T01:21:14.175Z,17.27
2022-12-16T01:23:43.814Z,17.87
2022-12-16T01:26:16.838Z,17.20
2022-12-16T01:28:45.112Z,18.03
2022-12-16T01:31:13.013Z,18.10
2022-12-16T01:33:40.603Z,17.00
2022-12-16T01:36:09.164Z,16.20
2022-12-16T01:38:40.189Z,18.07
2022-12-16T01:41:10.070Z,17.67
2022-12-16T01:43:42.087Z,15.97
2022-12-16T01:46:13.803Z,16.77
2022-12-16T01:48:44.858Z,17.10
2022-12-16T01:51:41.303Z,15.37
2022-12-16T01:54:25.562Z,15.57
2022-12-16T01:56:59.488Z,15.80
2022-12-16T01:59:32.740Z,15.77
2022-12-16T02:02:00.641Z,15.17
2022-12-16T02:04:28.226Z,15.73
2022-12-16T02:06:58.514Z,13.47
2022-12-16T02:09:27.286Z,13.30
2022-12-16T02:12:17.586Z,13.37
2022-12-16T02:15:08.232Z,13.93
2022-12-16T02:17:35.375Z,10.33
2022-12-16T02:20:39.916Z,10.70
2022-12-16T02:23:45.126Z,10.40
2022-12-16T02:26:40.875Z,9.73
2022-12-16T02:29:36.940Z,8.90
2022-12-16T02:32:12.623Z,9.07
2022-12-16T02:34:55.017Z,9.47
2022-12-16T02:37:59.560Z,9.17
2022-12-16T02:40:41.627Z,8.93
2022-12-16T02:43:27.475Z,10.33
2022-12-16T02:45:54.872Z,9.07
2022-12-16T02:48:22.776Z,7.90
2022-12-16T02:50:51.900Z,7.60
2022-12-16T02:53:20.516Z,7.43
2022-12-16T02:56:22.331Z,8.27
2022-12-16T02:59:17.437Z,7.70
2022-12-16T03:01:56.977Z,7.83
2022-12-16T03:04:36.082Z,7.40
2022-12-16T03:07:06.624Z,7.97
2022-12-16T03:09:36.586Z,7.70
2022-12-16T03:12:10.664Z,7.00
2022-12-16T03:14:41.975Z,7.40
2022-12-16T03:17:13.328Z,6.97
2022-12-16T03:19:47.039Z,5.87
2022-12-16T03:22:29.061Z,6.00
2022-12-16T03:24:56.661Z,7.33
2022-12-16T03:27:35.626Z,6.10
2022-12-16T03:30:07.687Z,6.57
2022-12-16T03:32:41.531Z,7.63
2022-12-16T03:35:13.586Z,5.50
2022-12-16T03:37:45.342Z,6.67
2022-12-16T03:40:21.847Z,5.60
2022-12-16T03:42:52.531Z,5.13
2022-12-16T03:45:25.537Z,5.50
2022-12-16T03:47:53.516Z,5.60
2022-12-16T03:50:30.995Z,5.73
2022-12-16T03:52:58.795Z,5.37
2022-12-16T03:55:29.637Z,5.77
2022-12-16T03:57:57.293Z,7.00
2022-12-16T04:00:25.487Z,6.90
2022-12-16T04:02:57.821Z,5.90
2022-12-16T04:05:27.871Z,7.43
2022-12-16T04:08:00.240Z,7.13
2022-12-16T04:10:48.577Z,7.90
2022-12-16T04:13:35.312Z,7.53
2022-12-16T04:16:21.497Z,7.80
2022-12-16T04:19:07.655Z,7.87
2022-12-16T04:21:55.656Z,7.03
2022-12-16T04:24:26.792Z,7.67
2022-12-16T04:27:15.644Z,7.97
2022-12-16T04:30:09.730Z,7.37
2022-12-16T04:33:00.351Z,7.37
2022-12-16T04:35:46.366Z,7.87
2022-12-16T04:38:33.059Z,7.20
2022-12-16T04:41:18.982Z,7.17
2022-12-16T04:44:04.923Z,7.10
2022-12-16T04:46:50.947Z,5.70
2022-12-16T04:49:36.988Z,6.73
2022-12-16T04:52:24.315Z,6.13
2022-12-16T04:55:10.609Z,5.80
2022-12-16T04:57:56.529Z,5.87
2022-12-16T05:00:43.039Z,6.10
2022-12-16T05:03:28.958Z,5.23
2022-12-16T05:06:14.801Z,5.60
2022-12-16T05:09:00.870Z,6.63
2022-12-16T05:11:46.788Z,6.30
2022-12-16T05:14:32.707Z,5.63
2022-12-16T05:17:18.952Z,7.30
2022-12-16T05:20:04.666Z,6.60
2022-12-16T05:22:51.112Z,5.40
2022-12-16T05:25:37.113Z,6.67
2022-12-16T05:28:23.584Z,6.80
2022-12-16T05:31:10.337Z,6.27
2022-12-16T05:33:56.750Z,6.13
2022-12-16T05:36:42.762Z,6.60
2022-12-16T05:39:28.774Z,7.87
2022-12-16T05:42:17.344Z,7.10
2022-12-16T05:45:04.497Z,6.97
2022-12-16T05:47:50.360Z,8.53
2022-12-16T05:50:36.348Z,7.27
2022-12-16T05:53:29.352Z,7.53
2022-12-16T05:56:15.313Z,7.83
2022-12-16T05:59:01.505Z,7.17
2022-12-16T06:01:48.095Z,8.60
2022-12-16T06:04:34.137Z,7.10
2022-12-16T06:07:20.086Z,7.90
2022-12-16T06:10:08.644Z,7.23
2022-12-16T06:12:54.490Z,8.37
2022-12-16T06:15:42.666Z,8.83
2022-12-16T06:18:28.611Z,8.63
2022-12-16T06:21:14.572Z,8.57
2022-12-16T06:24:00.709Z,8.97
2022-12-16T06:26:46.699Z,9.60
2022-12-16T06:29:32.651Z,10.23
2022-12-16T06:32:18.588Z,10.70
2022-12-16T06:35:15.458Z,10.07
2022-12-16T06:38:01.608Z,11.17
2022-12-16T06:40:47.604Z,11.97
2022-12-16T06:43:33.968Z,11.20
2022-12-16T06:46:20.455Z,10.73
2022-12-16T06:49:06.694Z,11.23
2022-12-16T06:51:52.515Z,10.17
2022-12-16T06:54:38.685Z,11.00
2022-12-16T06:57:26.068Z,10.40
2022-12-16T07:00:12.103Z,11.67
2022-12-16T07:02:58.447Z,11.93
2022-12-16T07:05:44.247Z,11.73
2022-12-16T07:08:30.327Z,11.80
2022-12-16T07:11:17.398Z,11.77
2022-12-16T07:14:04.426Z,10.43
2022-12-16T07:16:50.504Z,12.37
2022-12-16T07:19:36.276Z,11.13
2022-12-16T07:22:22.310Z,12.53
2022-12-16T07:25:08.176Z,11.87
2022-12-16T07:27:54.570Z,12.30
2022-12-16T07:30:40.559Z,12.70
2022-12-16T07:33:27.086Z,13.50
2022-12-16T07:36:13.137Z,12.43
2022-12-16T07:38:59.096Z,11.30
2022-12-16T07:41:45.050Z,11.80
2022-12-16T07:44:31.004Z,13.70
2022-12-16T07:47:16.949Z,13.27
2022-12-16T07:50:02.669Z,12.47
2022-12-16T07:52:48.685Z,13.07
2022-12-16T07:55:34.870Z,13.43
2022-12-16T07:58:20.869Z,17.03
2022-12-16T08:01:09.634Z,16.23
2022-12-16T08:03:56.135Z,14.80
2022-12-16T08:06:42.295Z,15.00
2022-12-16T08:09:28.288Z,14.20
2022-12-16T08:12:14.308Z,14.77
2022-12-16T08:15:00.549Z,13.47
2022-12-16T08:17:46.822Z,15.83
2022-12-16T08:20:32.996Z,13.73
2022-12-16T08:23:19.047Z,15.80
2022-12-16T08:26:07.467Z,22.20
2022-12-16T08:28:53.531Z,18.33
2022-12-16T08:31:39.598Z,25.57
2022-12-16T08:34:26.577Z,16.97
2022-12-16T08:37:12.805Z,14.77
2022-12-16T08:40:33.266Z,14.53
2022-12-16T08:43:10.812Z,14.87
2022-12-16T08:45:59.708Z,17.77
2022-12-16T08:48:46.347Z,17.30
2022-12-16T08:51:32.436Z,22.50
2022-12-16T08:54:18.379Z,94.50
2022-12-16T08:57:04.372Z,18.20
2022-12-16T08:59:53.743Z,17.47
2022-12-16T09:02:40.679Z,16.33
2022-12-16T09:05:27.007Z,18.03
2022-12-16T09:08:18.366Z,16.40
2022-12-16T09:11:04.394Z,15.43
2022-12-16T09:13:50.445Z,15.37
2022-12-16T09:16:37.624Z,14.43
2022-12-16T09:19:23.755Z,12.83
2022-12-16T09:22:09.925Z,15.27
2022-12-16T09:24:56.097Z,15.60
2022-12-16T09:27:42.030Z,15.73
2022-12-16T09:30:28.706Z,15.03
2022-12-16T09:33:15.232Z,15.30
2022-12-16T09:36:01.951Z,17.30
2022-12-16T09:38:48.129Z,37.43
2022-12-16T09:41:46.414Z,20.30
2022-12-16T09:45:10.863Z,31.33
2022-12-16T09:48:04.654Z,27.17
2022-12-16T09:50:51.418Z,45.07
2022-12-16T09:53:41.391Z,19.53
2022-12-16T09:56:41.124Z,71.90
2022-12-16T09:59:33.353Z,17.93
2022-12-16T10:02:20.217Z,16.73
2022-12-16T10:05:10.905Z,15.73
2022-12-16T10:08:05.069Z,16.27
2022-12-16T10:11:08.917Z,17.70
2022-12-16T10:14:07.366Z,19.70
2022-12-16T10:17:21.381Z,17.77
2022-12-16T10:20:22.174Z,19.07
2022-12-16T10:23:32.050Z,16.27
2022-12-16T10:26:30.908Z,18.63
2022-12-16T10:29:31.677Z,17.80
2022-12-16T10:32:17.537Z,16.70
2022-12-16T10:35:03.938Z,18.97
2022-12-16T10:37:57.087Z,16.67
2022-12-16T10:40:46.665Z,18.93
2022-12-16T10:44:01.418Z,17.27
2022-12-16T10:47:01.195Z,18.43
2022-12-16T10:49:52.314Z,21.70
2022-12-16T10:52:41.372Z,19.53
2022-12-16T10:56:01.538Z,20.23
2022-12-16T10:58:56.390Z,19.60
2022-12-16T11:01:45.698Z,20.27
2022-12-16T11:04:55.721Z,18.13
2022-12-16T11:07:50.379Z,19.70
2022-12-16T11:10:56.056Z,20.60
2022-12-16T11:13:44.946Z,19.83
2022-12-16T11:16:43.865Z,24.23
2022-12-16T11:19:45.526Z,22.47
2022-12-16T11:22:38.677Z,20.03
2022-12-16T11:25:26.350Z,21.83
2022-12-16T11:28:45.411Z,22.67
2022-12-16T11:31:33.752Z,20.10
2022-12-16T11:34:23.358Z,23.90
2022-12-16T11:37:11.258Z,26.07
2022-12-16T11:39:58.889Z,20.77
2022-12-16T11:42:50.061Z,20.37
2022-12-16T11:45:40.730Z,19.93
2022-12-16T11:48:41.276Z,21.83
2022-12-16T11:51:33.345Z,19.63
2022-12-16T11:54:41.590Z,20.43
2022-12-16T11:57:41.430Z,26.13
2022-12-16T12:00:38.633Z,19.30
2022-12-16T12:03:44.418Z,20.20
2022-12-16T12:06:38.047Z,18.90
2022-12-16T12:09:24.118Z,19.03
2022-12-16T12:12:36.813Z,21.43
2022-12-16T12:15:34.179Z,18.67
2022-12-16T12:18:41.031Z,21.10
2022-12-16T12:21:38.355Z,19.90
2022-12-16T12:25:07.595Z,20.97
2022-12-16T12:28:09.275Z,20.67
2022-12-16T12:31:08.930Z,21.93
2022-12-16T12:34:12.723Z,19.23
2022-12-16T12:37:09.942Z,21.17
2022-12-16T12:40:10.582Z,21.50
2022-12-16T12:43:00.616Z,20.57
2022-12-16T12:46:15.719Z,19.77
2022-12-16T12:49:32.698Z,20.60
2022-12-16T12:52:52.082Z,22.10
2022-12-16T12:56:23.745Z,21.47
2022-12-16T12:59:13.148Z,21.07
2022-12-16T13:02:01.692Z,21.67
2022-12-16T13:04:50.599Z,22.33
2022-12-16T13:07:37.691Z,36.63
2022-12-16T13:10:31.520Z,24.60
2022-12-16T13:13:38.386Z,21.37
2022-12-16T13:16:30.141Z,23.40
2022-12-16T13:19:48.778Z,21.90
2022-12-16T13:22:53.492Z,20.73
2022-12-16T13:26:10.418Z,20.80
2022-12-16T13:28:59.516Z,23.43
2022-12-16T13:31:48.959Z,19.93
2022-12-16T13:34:35.896Z,21.33
2022-12-16T13:37:33.738Z,21.60
2022-12-16T13:40:31.562Z,23.33
2022-12-16T13:43:32.574Z,22.13
2022-12-16T13:46:30.201Z,23.73
2022-12-16T13:49:55.820Z,21.20
2022-12-16T13:53:08.662Z,22.83
2022-12-16T13:56:15.399Z,31.93
2022-12-16T13:59:08.114Z,28.87
2022-12-16T14:02:06.378Z,20.43
2022-12-16T14:04:56.011Z,21.00
2022-12-16T14:07:45.198Z,22.83
2022-12-16T14:10:50.646Z,22.40
2022-12-16T14:13:59.672Z,23.43
2022-12-16T14:16:51.950Z,22.60
2022-12-16T14:20:14.312Z,19.57
2022-12-16T14:23:46.821Z,19.27
2022-12-16T14:26:23.142Z,22.20
2022-12-16T14:29:09.223Z,81.20
2022-12-16T14:31:59.061Z,24.63
2022-12-16T14:34:55.352Z,21.70
2022-12-16T14:37:52.431Z,22.87
2022-12-16T14:40:42.268Z,23.33
2022-12-16T14:43:34.521Z,24.50
2022-12-16T14:46:21.511Z,24.30
2022-12-16T14:49:09.593Z,28.40
2022-12-16T14:52:03.659Z,27.30
2022-12-16T14:54:58.427Z,22.50
2022-12-16T14:57:51.050Z,25.90
2022-12-16T15:00:42.435Z,20.97
2022-12-16T15:03:37.734Z,24.07
2022-12-16T15:06:29.198Z,27.87
2022-12-16T15:09:32.546Z,30.37
2022-12-16T15:12:19.206Z,21.67
2022-12-16T15:15:05.990Z,21.40
2022-12-16T15:18:13.489Z,25.00
2022-12-16T15:21:14.278Z,27.30
2022-12-16T15:24:02.722Z,34.93
2022-12-16T15:26:50.768Z,30.03
2022-12-16T15:30:01.456Z,38.40
2022-12-16T15:32:54.381Z,26.50
2022-12-16T15:35:46.216Z,28.33
2022-12-16T15:38:34.716Z,36.20
2022-12-16T15:41:24.009Z,44.70
2022-12-16T15:44:10.743Z,31.50
2022-12-16T15:46:57.065Z,32.83
2022-12-16T15:50:03.626Z,25.37
2022-12-16T15:52:58.057Z,29.30
2022-12-16T15:56:04.539Z,27.03
2022-12-16T15:58:52.686Z,42.57
2022-12-16T16:01:46.582Z,39.63
2022-12-16T16:04:41.758Z,25.63
2022-12-16T16:07:47.964Z,26.07
2022-12-16T16:10:43.075Z,28.53
2022-12-16T16:13:29.580Z,27.97
2022-12-16T16:16:15.892Z,31.80
2022-12-16T16:19:01.806Z,29.03
2022-12-16T16:21:49.020Z,26.63
2022-12-16T16:24:34.970Z,27.20
2022-12-16T16:27:22.598Z,28.07
2022-12-16T16:30:08.927Z,26.30
2022-12-16T16:32:54.951Z,28.83
2022-12-16T16:35:41.047Z,27.67
2022-12-16T16:38:30.382Z,27.13
2022-12-16T16:41:18.029Z,29.23
2022-12-16T16:44:04.359Z,27.43
2022-12-16T16:46:57.186Z,27.30
2022-12-16T16:50:01.248Z,30.87
2022-12-16T16:52:47.135Z,33.63
2022-12-16T16:55:43.315Z,31.30
2022-12-16T16:58:40.528Z,31.37
2022-12-16T17:01:31.797Z,26.77
2022-12-16T17:04:18.032Z,29.90
2022-12-16T17:07:04.474Z,27.07
2022-12-16T17:09:50.495Z,28.63
2022-12-16T17:12:42.241Z,26.77
2022-12-16T17:15:41.752Z,32.73
2022-12-16T17:18:28.826Z,36.53
2022-12-16T17:21:14.926Z,28.27
2022-12-16T17:24:00.986Z,26.87
2022-12-16T17:26:46.891Z,32.47
2022-12-16T17:29:42.347Z,28.33
2022-12-16T17:32:30.139Z,29.87
2022-12-16T17:35:16.767Z,37.03
2022-12-16T17:38:03.064Z,32.67
2022-12-16T17:40:49.066Z,33.60
2022-12-16T17:43:36.062Z,29.23
2022-12-16T17:46:25.608Z,28.40
2022-12-16T17:49:13.050Z,28.20
2022-12-16T17:51:59.867Z,27.20
2022-12-16T17:54:48.669Z,26.53
2022-12-16T17:57:34.819Z,29.00
2022-12-16T18:00:21.810Z,24.13
2022-12-16T18:03:09.751Z,30.03
2022-12-16T18:05:58.510Z,25.63
2022-12-16T18:08:44.656Z,25.33
2022-12-16T18:11:35.901Z,25.23
2022-12-16T18:14:24.777Z,25.63
2022-12-16T18:17:10.820Z,44.80
2022-12-16T18:19:56.656Z,29.07
2022-12-16T18:22:42.579Z,26.83
2022-12-16T18:25:28.678Z,26.97
2022-12-16T18:28:14.943Z,25.23
2022-12-16T18:31:01.228Z,27.80
2022-12-16T18:33:47.175Z,26.53
2022-12-16T18:36:33.341Z,25.17
2022-12-16T18:39:19.464Z,25.60
2022-12-16T18:42:05.930Z,26.50
2022-12-16T18:44:57.576Z,33.63
2022-12-16T18:47:46.658Z,28.37
2022-12-16T18:50:37.515Z,27.43
2022-12-16T18:53:24.420Z,27.43
2022-12-16T18:56:25.744Z,28.00
2022-12-16T18:59:14.222Z,27.00
2022-12-16T19:02:00.220Z,29.90
2022-12-16T19:04:46.093Z,35.63
2022-12-16T19:07:33.981Z,29.37
2022-12-16T19:10:20.500Z,26.40
2022-12-16T19:13:06.570Z,28.73
2022-12-16T19:15:52.852Z,54.80
2022-12-16T19:18:39.190Z,28.53
2022-12-16T19:21:25.131Z,25.17
2022-12-16T19:24:11.502Z,26.80
2022-12-16T19:26:57.662Z,30.87
2022-12-16T19:29:43.807Z,23.00
2022-12-16T19:32:29.925Z,24.23
2022-12-16T19:35:16.275Z,24.43
2022-12-16T19:38:03.275Z,26.13
2022-12-16T19:41:00.322Z,26.83
2022-12-16T19:43:46.152Z,28.27
2022-12-16T19:46:32.975Z,28.90
2022-12-16T19:49:19.477Z,29.27
2022-12-16T19:52:05.344Z,25.83
2022-12-16T19:54:51.785Z,26.50
2022-12-16T19:57:38.292Z,24.63
2022-12-16T20:00:25.377Z,26.53
2022-12-16T20:03:11.544Z,27.10
2022-12-16T20:06:18.009Z,29.63
2022-12-16T20:09:07.903Z,24.63
2022-12-16T20:11:55.834Z,26.00
2022-12-16T20:14:56.463Z,29.03
2022-12-16T20:17:43.357Z,25.17
2022-12-16T20:20:29.570Z,27.13
2022-12-16T20:23:15.975Z,28.97
2022-12-16T20:26:02.132Z,76.43
2022-12-16T20:28:48.079Z,40.47
2022-12-16T20:31:34.654Z,42.40
2022-12-16T20:34:20.772Z,30.90
2022-12-16T20:37:06.576Z,26.50
2022-12-16T20:39:56.762Z,25.37
2022-12-16T20:42:47.673Z,27.50
2022-12-16T20:45:34.736Z,27.17
2022-12-16T20:48:20.968Z,26.27
2022-12-16T20:54:31.134Z,26.40
2022-12-16T20:57:17.170Z,25.77
2022-12-16T21:00:03.146Z,24.40
2022-12-16T21:02:49.468Z,29.33
2022-12-16T21:05:35.527Z,24.17
2022-12-16T21:08:35.158Z,26.50
2022-12-16T21:11:21.464Z,24.50
2022-12-16T21:14:07.276Z,24.87
2022-12-16T21:16:53.381Z,74.43
2022-12-16T21:19:41.835Z,47.83
2022-12-16T21:22:28.533Z,25.53
2022-12-16T21:25:14.335Z,25.67
2022-12-16T21:28:00.791Z,25.00
2022-12-16T21:30:46.760Z,23.90
2022-12-16T21:33:37.319Z,23.87
2022-12-16T21:36:24.564Z,24.00
2022-12-16T21:39:10.538Z,28.57
2022-12-16T21:41:56.858Z,27.60
2022-12-16T21:44:42.731Z,25.77
2022-12-16T21:47:28.722Z,24.83
2022-12-16T21:50:14.747Z,25.00
2022-12-16T21:53:01.164Z,27.10
2022-12-16T21:55:46.973Z,25.20
2022-12-16T21:58:33.047Z,28.30
2022-12-16T22:01:20.766Z,25.97
2022-12-16T22:04:06.698Z,25.97
2022-12-16T22:06:52.677Z,27.97
2022-12-16T22:09:39.167Z,25.20
2022-12-16T22:12:25.135Z,25.30
2022-12-16T22:15:11.127Z,28.37
2022-12-16T22:17:58.523Z,27.83
2022-12-16T22:20:45.268Z,27.67
2022-12-16T22:23:32.115Z,23.93
2022-12-16T22:26:19.909Z,24.77
2022-12-16T22:29:06.255Z,24.40
2022-12-16T22:31:52.180Z,27.07
2022-12-16T22:34:37.978Z,23.77
2022-12-16T22:37:23.848Z,24.73
2022-12-16T22:40:09.871Z,24.63
2022-12-16T22:42:56.318Z,23.37
2022-12-16T22:45:42.559Z,22.70
2022-12-16T22:48:31.145Z,23.67
2022-12-16T22:51:17.221Z,24.03
2022-12-16T22:54:03.717Z,23.80
2022-12-16T22:56:50.196Z,25.47
2022-12-16T22:59:35.972Z,25.77
2022-12-16T23:02:22.351Z,23.30
2022-12-16T23:05:08.852Z,24.23
2022-12-16T23:07:55.668Z,23.13
2022-12-16T23:10:42.600Z,28.77
2022-12-16T23:13:30.894Z,26.10
2022-12-16T23:16:16.896Z,25.83
2022-12-16T23:19:03.055Z,25.37
2022-12-16T23:21:49.118Z,24.30
2022-12-16T23:24:34.910Z,25.33
2022-12-16T23:27:20.863Z,25.70
2022-12-16T23:30:06.809Z,25.03
2022-12-16T23:32:53.706Z,22.50
2022-12-16T23:35:39.802Z,26.47
2022-12-16T23:38:26.341Z,24.80
2022-12-16T23:41:16.981Z,24.40
2022-12-16T23:44:03.743Z,24.57
2022-12-16T23:46:50.003Z,24.60
2022-12-16T23:49:36.125Z,26.33
2022-12-16T23:52:22.174Z,26.20
2022-12-16T23:55:08.010Z,24.60
2022-12-16T23:57:53.915Z,24.73
